Portada
METAR-TAF:

METAR-TAF

Aeroports :

Kulob, Tadjikistan

latitud: 37-59-18N, longitud: 069-48-18E, altitud: 699 m

Observació

L'informe es va fer fa 24 minuts, a les 21:00 UTC
Vent 12 kt del Nord/Nord-Est
Temperatura 24°C
Humitat 54%
Pressió 1013 hPa
Visibilitat 10 km o més

METAR: UTDK 252100Z 02006MPS 9999 NSC 24/14 Q1013 R01/09//70 RMK QFE703/0937

Hora: 02:24 (21:24 UTC)

Pronòstic

L'informe es va fer fa 3 hores i 24 minuts, a les 18:00 UTC
Pronòstic vàlid del 25 a les 19 UTC al 26 a les 04 UTC
Vent 10 kt del Nord/Nord-Est
Visibilitat: 6000 m
Escasses núvols a una alçada de 6600 ft
Núvols disperses a una alçada de 12000 ft

TAF: UTDK 251800Z 2519/2604 03005MPS 6000 FEW066 SCT120

Observacions i pronòstics meteorològics de més de 4000 aeroports (METAR i TAF).

Les estacions disponibles són els punts grocs i vermells al mapa.

Posi el ratolí al punt desitjat per veure el nom de l'estació.

Feu clic per veure les observacions i els pronòstics meteorològics.

Per canviar el mapa: feu clic els botons verds amb una creu de color negre per apropar; al botó verd amb un guió per allunyar la imatge; o en les fletxes verdes per a mapes adjacents.


METAR-TAF: